Time;durP1;ratioP1;P1;durP2;ratioP2;P2;SDS_P1;SDS_P2;PMS_P1;PMS_P2;Temp;Humidity;BMP_temperature;BMP_pressure;BME280_temperature;BME280_humidity;BME280_pressure;Samples;Min_cycle;Max_cycle;Signal;HPM_P1;HPM_P2
2021/07/16 00:00:25;;;;;;;21.70;9.48;;;;;;;16.08;100.00;102032.50;3592734;39;20063;-63
2021/07/16 00:02:52;;;;;;;17.63;8.70;;;;;;;16.17;100.00;102028.06;3593181;39;20068;-63
2021/07/16 00:05:19;;;;;;;19.27;10.02;;;;;;;16.13;100.00;102028.50;3591935;39;20047;-63
2021/07/16 00:07:45;;;;;;;16.98;9.05;;;;;;;16.07;100.00;102033.50;3588845;39;20061;-62
2021/07/16 00:10:14;;;;;;;20.48;9.20;;;;;;;16.03;100.00;102029.38;3590823;39;20046;-62
2021/07/16 00:12:43;;;;;;;16.75;9.23;;;;;;;16.07;100.00;102014.47;3592424;39;20035;-63
2021/07/16 00:15:10;;;;;;;18.67;8.77;;;;;;;16.06;100.00;102020.06;3590650;39;20534;-63
2021/07/16 00:17:38;;;;;;;21.77;9.75;;;;;;;16.10;100.00;102026.91;3592385;39;20314;-62
2021/07/16 00:20:06;;;;;;;20.60;9.85;;;;;;;16.20;100.00;102030.50;3592685;39;20302;-63
2021/07/16 00:22:33;;;;;;;22.83;9.57;;;;;;;16.17;100.00;102029.94;3589518;39;20042;-62
2021/07/16 00:24:59;;;;;;;19.27;9.35;;;;;;;16.10;100.00;102037.78;3592432;39;20052;-63
2021/07/16 00:27:26;;;;;;;17.58;9.73;;;;;;;16.01;100.00;102031.34;3595162;39;20047;-62
2021/07/16 00:29:53;;;;;;;20.55;11.52;;;;;;;15.95;100.00;102037.38;3597767;39;20283;-63
2021/07/16 02:02:54;;;;;;;22.67;9.75;;;;;;;15.40;100.00;102044.13;3597477;22;20059;-62
2021/07/16 02:05:21;;;;;;;20.88;9.02;;;;;;;15.47;100.00;102046.25;3576123;40;20413;-62
2021/07/16 03:40:31;;;;;;;16.02;5.65;;;;;;;15.12;100.00;102055.72;3615174;22;20063;-62
2021/07/16 03:42:58;;;;;;;21.13;6.55;;;;;;;15.19;100.00;102062.31;3583529;39;20063;-62
2021/07/16 04:31:21;;;;;;;15.40;5.00;;;;;;;15.20;100.00;102054.03;3624974;22;20088;-63
2021/07/16 04:33:47;;;;;;;20.25;5.60;;;;;;;15.19;100.00;102057.75;3583484;39;20044;-62
2021/07/16 06:06:23;;;;;;;17.63;5.70;;;;;;;16.23;100.00;102121.72;3594411;39;20282;-64
2021/07/16 06:55:03;;;;;;;16.75;5.53;;;;;;;16.52;100.00;102138.00;3562719;22;20072;-63
2021/07/16 06:57:29;;;;;;;18.63;6.07;;;;;;;16.67;100.00;102154.72;3587993;39;20059;-62
2021/07/16 07:45:50;;;;;;;19.42;5.95;;;;;;;17.01;100.00;102176.03;3625940;22;20052;-64
2021/07/16 07:48:16;;;;;;;19.97;5.27;;;;;;;17.09;100.00;102172.56;3600041;39;20039;-63
2021/07/16 07:50:43;;;;;;;24.75;5.82;;;;;;;17.47;100.00;102181.63;3600921;39;20379;-63
2021/07/16 07:53:09;;;;;;;23.17;6.03;;;;;;;17.54;100.00;102182.75;3599298;39;20043;-62
2021/07/16 09:27:33;;;;;;;19.08;5.18;;;;;;;17.73;100.00;102219.06;3628612;22;20055;-62
2021/07/16 09:30:19;;;;;;;29.48;6.60;;;;;;;17.69;100.00;102226.66;3590400;40;20050;-62
2021/07/16 09:32:47;;;;;;;17.50;5.47;;;;;;;17.98;100.00;102215.66;3590220;40;20302;-62
2021/07/16 10:21:48;;;;;;;24.88;5.43;;;;;;;20.08;100.00;102237.84;3638633;22;20091;-61
2021/07/16 10:24:21;;;;;;;15.98;4.15;;;;;;;19.68;100.00;102243.94;3597490;39;20043;-62
2021/07/16 10:26:50;;;;;;;22.50;5.63;;;;;;;19.43;100.00;102251.97;3598532;39;20511;-63
2021/07/16 10:29:37;;;;;;;17.85;4.88;;;;;;;18.98;100.00;102247.56;3597191;39;20035;-63
2021/07/16 10:32:04;;;;;;;21.83;5.03;;;;;;;19.02;100.00;102254.41;3601701;39;20048;-62
2021/07/16 10:34:34;;;;;;;21.48;5.07;;;;;;;19.17;100.00;102252.81;3601514;39;20061;-61
2021/07/16 10:37:04;;;;;;;23.55;6.10;;;;;;;19.38;100.00;102259.81;3601496;39;20053;-63
2021/07/16 10:39:50;;;;;;;16.95;5.32;;;;;;;19.47;100.00;102252.53;3602121;39;20059;-62
2021/07/16 10:42:44;;;;;;;18.48;4.82;;;;;;;19.49;100.00;102256.78;3599766;39;20327;-63
2021/07/16 10:45:11;;;;;;;19.90;5.18;;;;;;;19.08;100.00;102249.19;3599352;39;20039;-63
2021/07/16 10:47:40;;;;;;;21.50;5.35;;;;;;;19.35;100.00;102249.19;3605459;39;20035;-64
2021/07/16 10:50:09;;;;;;;25.40;5.82;;;;;;;19.22;100.00;102245.00;3600427;39;20039;-64
2021/07/16 10:52:49;;;;;;;24.45;5.68;;;;;;;19.40;100.00;102252.28;3600648;39;20030;-63
2021/07/16 10:55:17;;;;;;;26.80;5.40;;;;;;;19.71;100.00;102252.66;3601389;39;20044;-62
2021/07/16 10:57:46;;;;;;;23.15;4.85;;;;;;;20.03;100.00;102247.53;3601143;39;20044;-62
2021/07/16 11:00:14;;;;;;;22.90;5.07;;;;;;;20.33;100.00;102250.72;3598612;39;20076;-63
2021/07/16 11:02:45;;;;;;;19.13;5.22;;;;;;;20.61;100.00;102241.22;3600656;39;20278;-62
2021/07/16 11:05:48;;;;;;;22.42;5.28;;;;;;;20.51;100.00;102245.97;3599844;39;20052;-62
2021/07/16 11:08:51;;;;;;;17.63;5.10;;;;;;;20.49;100.00;102248.00;3598952;39;20040;-62
2021/07/16 11:11:20;;;;;;;18.33;5.35;;;;;;;20.71;100.00;102243.78;3599925;39;20040;-63
2021/07/16 11:13:47;;;;;;;;;;;;;;;20.95;100.00;102248.44;3602138;39;20039;-62
2021/07/16 11:16:47;;;;;;;17.70;4.95;;;;;;;21.10;100.00;102245.03;3601002;39;19972;-62
2021/07/16 11:19:31;;;;;;;22.42;5.60;;;;;;;20.86;100.00;102254.91;3593406;39;20044;-62
2021/07/16 11:22:02;;;;;;;18.25;5.32;;;;;;;20.12;100.00;102271.16;3600922;39;20051;-62
2021/07/16 11:24:32;;;;;;;23.60;5.38;;;;;;;19.86;100.00;102269.34;3603500;39;20051;-62
2021/07/16 11:27:03;;;;;;;19.02;4.50;;;;;;;20.24;100.00;102266.22;3601571;39;20052;-63
2021/07/16 11:29:32;;;;;;;19.90;5.10;;;;;;;20.33;100.00;102273.44;3605916;39;20040;-62
2021/07/16 11:32:03;;;;;;;;;;;;;;;20.38;100.00;102275.69;3604352;39;20047;-61
2021/07/16 11:34:30;;;;;;;20.27;5.07;;;;;;;20.44;100.00;102266.81;3600489;39;19943;-62
2021/07/16 11:36:57;;;;;;;21.50;5.30;;;;;;;20.25;100.00;102263.31;3600590;39;20043;-61
2021/07/16 13:14:27;;;;;;;21.00;5.40;;;;;;;20.44;100.00;102288.69;3609841;22;20064;-62
2021/07/16 13:17:19;;;;;;;20.17;5.80;;;;;;;20.65;100.00;102293.69;3591374;40;20048;-62
2021/07/16 13:19:45;;;;;;;19.40;6.78;;;;;;;20.69;100.00;102297.00;3594983;39;20325;-62
2021/07/16 13:22:12;;;;;;;25.52;6.43;;;;;;;20.59;100.00;102295.22;3585923;40;20048;-63
2021/07/16 14:56:29;;;;;;;19.08;6.57;;;;;;;21.49;100.00;102293.56;3616106;22;20053;-61
2021/07/16 14:58:56;;;;;;;25.13;6.97;;;;;;;21.14;100.00;102295.63;3585076;40;20045;-61
2021/07/16 15:01:22;;;;;;;22.23;6.60;;;;;;;21.15;100.00;102291.88;3585748;40;20048;-61
2021/07/16 15:03:49;;;;;;;25.27;6.82;;;;;;;21.29;100.00;102293.06;3582050;40;20297;-62
2021/07/16 15:06:15;;;;;;;21.25;6.80;;;;;;;21.14;100.00;102292.91;3584750;40;20029;-62
2021/07/16 15:08:41;;;;;;;16.02;6.68;;;;;;;20.98;100.00;102293.78;3586474;40;20045;-62
2021/07/16 15:11:08;;;;;;;19.08;6.25;;;;;;;21.33;100.00;102295.31;3584550;40;20190;-61
2021/07/16 15:13:36;;;;;;;27.80;6.35;;;;;;;21.04;100.00;102295.84;3580218;40;20358;-62
2021/07/16 17:35:35;;;;;;;27.17;8.18;;;;;;;19.15;100.00;102325.81;3622318;22;20052;-62
2021/07/16 17:38:02;;;;;;;24.60;8.52;;;;;;;19.21;100.00;102330.66;3578011;40;20032;-61
2021/07/16 17:40:30;;;;;;;24.42;8.20;;;;;;;19.24;100.00;102329.47;3583360;40;20056;-61
2021/07/16 17:42:58;;;;;;;18.33;7.82;;;;;;;19.29;100.00;102331.72;3586313;40;20035;-60
2021/07/16 17:45:27;;;;;;;24.73;7.97;;;;;;;19.15;100.00;102336.72;3582713;40;20031;-61
2021/07/16 17:47:53;;;;;;;;;;;;;;;19.04;100.00;102334.25;3583387;40;20037;-61
2021/07/16 17:50:22;;;;;;;22.98;9.32;;;;;;;18.90;100.00;102341.97;3579464;40;19938;-61
2021/07/16 17:52:51;;;;;;;31.40;8.88;;;;;;;18.85;100.00;102335.22;3581505;40;20307;-61
2021/07/16 17:55:18;;;;;;;;;;;;;;;19.07;100.00;102333.94;3582277;40;20052;-63
2021/07/16 17:57:46;;;;;;;19.70;7.88;;;;;;;19.07;100.00;102339.38;3580744;40;19939;-62
2021/07/16 18:00:16;;;;;;;29.48;8.52;;;;;;;18.94;100.00;102337.03;3581890;40;20032;-63
2021/07/16 18:02:42;;;;;;;29.77;9.05;;;;;;;19.05;100.00;102336.81;3586685;40;20065;-63
2021/07/16 18:05:10;;;;;;;26.42;7.90;;;;;;;19.21;100.00;102335.22;3581596;40;20029;-62
2021/07/16 18:07:36;;;;;;;19.33;7.00;;;;;;;19.07;100.00;102344.84;3585099;40;20484;-62
2021/07/16 18:10:05;;;;;;;27.05;8.20;;;;;;;19.14;100.00;102345.94;3583266;40;20043;-62
2021/07/16 18:12:33;;;;;;;23.10;8.55;;;;;;;19.04;100.00;102339.72;3583886;40;20037;-62
2021/07/16 18:15:00;;;;;;;20.30;8.27;;;;;;;18.91;100.00;102340.94;3585401;40;20113;-62
2021/07/16 18:17:26;;;;;;;24.13;8.15;;;;;;;19.03;100.00;102344.28;3581387;40;20443;-62
2021/07/16 18:19:53;;;;;;;23.38;8.73;;;;;;;18.66;100.00;102349.84;3578151;40;20065;-62
2021/07/16 18:22:19;;;;;;;32.13;9.23;;;;;;;18.59;100.00;102351.47;3583298;40;20040;-61
2021/07/16 18:24:46;;;;;;;22.55;8.18;;;;;;;18.82;100.00;102355.47;3580936;40;20044;-62
2021/07/16 18:27:15;;;;;;;27.40;8.98;;;;;;;18.74;100.00;102352.66;3580758;40;20048;-62
2021/07/16 18:29:41;;;;;;;;;;;;;;;18.82;100.00;102355.47;3581042;40;20044;-62
2021/07/16 18:32:08;;;;;;;24.02;8.02;;;;;;;18.71;100.00;102355.69;3581173;40;20196;-62
2021/07/16 18:34:34;;;;;;;21.25;8.13;;;;;;;18.70;100.00;102370.34;3581587;40;20422;-61
2021/07/16 18:37:01;;;;;;;30.02;8.60;;;;;;;18.70;100.00;102367.63;3596247;39;20043;-61
2021/07/16 18:39:29;;;;;;;35.03;9.15;;;;;;;18.35;100.00;102372.81;3594308;39;20051;-62
2021/07/16 18:41:56;;;;;;;28.70;8.00;;;;;;;18.37;100.00;102370.81;3589722;39;20133;-61
2021/07/16 18:44:24;;;;;;;32.95;8.93;;;;;;;18.46;100.00;102360.88;3587369;39;20085;-62
2021/07/16 18:46:50;;;;;;;27.20;9.63;;;;;;;18.34;100.00;102371.13;3580905;40;20032;-63
2021/07/16 18:49:17;;;;;;;29.45;8.02;;;;;;;18.42;100.00;102373.09;3589717;39;20036;-61
2021/07/16 18:51:43;;;;;;;22.98;8.00;;;;;;;18.46;100.00;102377.22;3588710;39;20051;-62
2021/07/16 18:54:10;;;;;;;24.90;9.02;;;;;;;18.45;100.00;102378.22;3589769;40;20039;-62
2021/07/16 18:56:36;;;;;;;26.95;10.00;;;;;;;18.33;100.00;102380.28;3587107;39;20059;-62
2021/07/16 18:59:03;;;;;;;29.35;11.52;;;;;;;18.18;100.00;102382.66;3588622;40;20062;-62
2021/07/16 19:01:31;;;;;;;21.75;8.85;;;;;;;18.15;100.00;102390.25;3589140;40;20067;-62
2021/07/16 19:03:57;;;;;;;35.15;9.23;;;;;;;18.08;100.00;102391.84;3589162;40;20068;-62
2021/07/16 19:06:24;;;;;;;24.63;9.65;;;;;;;18.18;100.00;102399.00;3584571;39;20087;-62
2021/07/16 19:08:50;;;;;;;25.63;8.90;;;;;;;18.21;100.00;102403.28;3588262;39;20047;-62
2021/07/16 19:11:18;;;;;;;28.23;8.73;;;;;;;18.16;100.00;102403.72;3583623;40;20516;-62
2021/07/16 19:13:44;;;;;;;22.80;8.80;;;;;;;18.11;100.00;102413.34;3585304;40;20367;-62
2021/07/16 19:16:11;;;;;;;27.15;9.10;;;;;;;18.07;100.00;102412.78;3582900;40;20044;-62
2021/07/16 19:18:39;;;;;;;28.90;10.57;;;;;;;17.92;100.00;102414.25;3585367;40;20046;-62
2021/07/16 19:21:05;;;;;;;29.95;8.85;;;;;;;17.80;100.00;102424.41;3586030;39;20036;-63
2021/07/16 19:23:32;;;;;;;24.50;8.52;;;;;;;17.92;100.00;102425.16;3584171;39;20061;-62
2021/07/16 19:25:59;;;;;;;31.13;10.48;;;;;;;17.96;100.00;102426.56;3591172;39;20028;-62
2021/07/16 19:28:25;;;;;;;25.95;9.00;;;;;;;17.78;100.00;102426.44;3585370;40;20064;-61
2021/07/16 19:30:53;;;;;;;29.25;9.18;;;;;;;17.83;100.00;102422.28;3588396;40;20046;-62
2021/07/16 19:33:19;;;;;;;26.52;8.82;;;;;;;17.88;100.00;102429.16;3583897;40;20044;-62
2021/07/16 19:35:47;;;;;;;32.25;8.90;;;;;;;17.90;100.00;102428.03;3584334;40;20060;-62
2021/07/16 19:38:14;;;;;;;29.67;10.07;;;;;;;17.73;100.00;102431.47;3591555;39;20032;-62
2021/07/16 19:40:41;;;;;;;28.48;8.73;;;;;;;17.78;100.00;102430.00;3586982;40;20032;-62
2021/07/16 19:43:07;;;;;;;20.60;8.25;;;;;;;17.86;100.00;102430.16;3591807;40;20032;-62
2021/07/16 19:45:35;;;;;;;30.83;9.50;;;;;;;17.80;100.00;102427.13;3590854;40;20071;-62
2021/07/16 19:48:01;;;;;;;26.52;8.15;;;;;;;17.76;100.00;102436.63;3583031;40;20050;-62
2021/07/16 20:38:17;;;;;;;27.15;9.38;;;;;;;17.46;100.00;102476.59;3631978;22;20399;-62
2021/07/16 20:40:44;;;;;;;26.13;8.82;;;;;;;17.38;100.00;102469.16;3599992;39;20032;-62
2021/07/16 20:43:11;;;;;;;26.10;8.48;;;;;;;17.39;100.00;102473.59;3600328;39;20043;-62
2021/07/16 20:45:38;;;;;;;26.88;9.32;;;;;;;17.34;100.00;102475.88;3600317;39;20050;-62
2021/07/16 20:48:05;;;;;;;27.77;8.88;;;;;;;17.37;100.00;102472.84;3598320;39;20105;-62
2021/07/16 20:50:31;;;;;;;29.40;9.60;;;;;;;17.34;100.00;102470.41;3597380;39;20032;-62
2021/07/16 20:52:58;;;;;;;23.10;8.88;;;;;;;17.36;100.00;102463.00;3598819;39;20042;-62
2021/07/16 20:55:27;;;;;;;26.92;9.95;;;;;;;17.32;100.00;102469.72;3598649;39;20064;-62
2021/07/16 20:57:53;;;;;;;22.50;8.85;;;;;;;17.20;100.00;102476.28;3595293;39;20322;-62
2021/07/16 21:00:20;;;;;;;26.02;9.15;;;;;;;17.25;100.00;102474.00;3597604;39;20047;-62
2021/07/16 21:02:47;;;;;;;26.60;8.68;;;;;;;17.27;100.00;102483.75;3597567;39;20124;-62
2021/07/16 21:05:13;;;;;;;29.60;9.25;;;;;;;17.27;100.00;102474.69;3597813;39;20050;-61
2021/07/16 21:07:43;;;;;;;24.00;8.93;;;;;;;17.20;100.00;102484.47;3601389;39;20124;-62
2021/07/16 21:10:11;;;;;;;34.47;8.85;;;;;;;17.25;100.00;102482.16;3601464;39;20056;-62
2021/07/16 21:12:39;;;;;;;27.17;8.50;;;;;;;17.14;100.00;102486.72;3603537;39;20068;-62
2021/07/16 21:15:07;;;;;;;28.15;9.07;;;;;;;17.17;100.00;102482.88;3603660;39;20037;-62
2021/07/16 21:17:33;;;;;;;26.42;7.97;;;;;;;17.05;100.00;102493.00;3604833;39;20316;-62
2021/07/16 21:20:00;;;;;;;22.42;9.55;;;;;;;17.10;100.00;102490.72;3603434;39;20039;-62
2021/07/16 21:22:27;;;;;;;21.35;8.57;;;;;;;17.06;100.00;102500.16;3601231;39;20468;-62
2021/07/16 21:24:53;;;;;;;27.65;9.63;;;;;;;17.13;100.00;102485.00;3601873;39;20024;-61
2021/07/16 21:27:20;;;;;;;32.13;9.32;;;;;;;17.07;100.00;102491.00;3604828;39;20023;-61
2021/07/16 21:29:47;;;;;;;21.70;8.88;;;;;;;16.97;100.00;102496.44;3601555;39;20028;-62
2021/07/16 21:32:15;;;;;;;26.42;9.50;;;;;;;16.93;100.00;102494.09;3604347;39;20032;-62
2021/07/16 21:34:41;;;;;;;31.40;9.75;;;;;;;17.03;100.00;102505.88;3603039;39;20039;-61
2021/07/16 21:37:08;;;;;;;29.55;9.35;;;;;;;16.95;100.00;102506.56;3602881;39;20058;-61
2021/07/16 21:39:34;;;;;;;23.38;9.10;;;;;;;16.93;100.00;102507.69;3604941;39;20059;-61
2021/07/16 21:44:30;;;;;;;30.10;9.68;;;;;;;16.99;100.00;102509.88;3617974;22;20055;-62
2021/07/16 21:46:58;;;;;;;22.13;8.30;;;;;;;16.97;100.00;102506.44;3589942;39;20064;-62
2021/07/16 21:49:25;;;;;;;25.30;8.88;;;;;;;16.89;100.00;102509.84;3589595;39;20044;-62
2021/07/16 21:51:52;;;;;;;29.85;10.30;;;;;;;16.90;100.00;102497.97;3589262;39;20032;-62
2021/07/16 21:54:21;;;;;;;27.02;8.77;;;;;;;16.92;100.00;102503.28;3593170;39;20036;-62
2021/07/16 21:56:48;;;;;;;26.73;10.57;;;;;;;16.92;100.00;102495.13;3585425;39;20125;-62
2021/07/16 21:59:18;;;;;;;26.08;9.50;;;;;;;16.92;100.00;102498.69;3588966;39;20051;-60
2021/07/16 22:01:44;;;;;;;25.77;9.55;;;;;;;16.94;100.00;102495.81;3592971;39;20310;-61
2021/07/16 22:04:12;;;;;;;27.40;9.23;;;;;;;16.98;100.00;102498.13;3591861;39;20068;-61
2021/07/16 22:06:39;;;;;;;27.60;9.38;;;;;;;16.93;100.00;102494.09;3593283;39;20044;-61
2021/07/16 22:09:05;;;;;;;21.75;9.35;;;;;;;16.89;100.00;102498.97;3593164;39;20044;-61
2021/07/16 22:11:32;;;;;;;28.83;9.00;;;;;;;16.76;100.00;102510.03;3594836;39;20052;-61
2021/07/16 22:13:58;;;;;;;20.80;8.98;;;;;;;16.73;100.00;102502.16;3591945;39;20463;-61
2021/07/16 22:16:25;;;;;;;28.08;9.38;;;;;;;16.88;100.00;102505.38;3590666;39;20047;-61
2021/07/16 22:18:51;;;;;;;28.35;9.55;;;;;;;16.82;100.00;102506.75;3591527;39;20070;-62
2021/07/16 22:21:19;;;;;;;22.15;8.95;;;;;;;16.74;100.00;102506.59;3593217;39;20034;-62
2021/07/16 22:23:46;;;;;;;24.45;8.75;;;;;;;16.73;100.00;102510.31;3590327;39;20366;-62
2021/07/16 22:26:12;;;;;;;27.30;9.45;;;;;;;16.74;100.00;102512.03;3589228;39;20387;-62
2021/07/16 22:28:42;;;;;;;25.77;10.27;;;;;;;16.77;100.00;102514.50;3589850;39;20036;-62
2021/07/16 22:31:11;;;;;;;28.88;10.00;;;;;;;16.77;100.00;102517.22;3590178;39;20033;-62
2021/07/16 22:33:37;;;;;;;26.13;9.75;;;;;;;16.76;100.00;102520.91;3588851;39;20080;-62
2021/07/16 22:36:04;;;;;;;23.55;9.23;;;;;;;16.72;100.00;102516.75;3589561;39;20412;-62
2021/07/16 22:38:32;;;;;;;27.52;9.35;;;;;;;16.72;100.00;102514.03;3591331;39;20379;-62
2021/07/16 22:40:59;;;;;;;27.17;9.13;;;;;;;16.75;100.00;102519.19;3592186;39;20028;-62
2021/07/16 22:43:25;;;;;;;25.85;9.73;;;;;;;16.81;100.00;102518.66;3590530;39;20032;-63
2021/07/16 22:45:52;;;;;;;29.40;9.90;;;;;;;16.72;100.00;102514.03;3579658;40;20509;-62
2021/07/16 22:48:18;;;;;;;28.67;10.30;;;;;;;16.71;100.00;102512.31;3582212;40;20392;-62
2021/07/16 22:50:45;;;;;;;22.98;9.90;;;;;;;16.69;100.00;102516.16;3581690;40;20035;-62
2021/07/16 22:53:12;;;;;;;27.77;11.07;;;;;;;16.66;100.00;102511.00;3581315;40;20111;-62
2021/07/16 22:55:40;;;;;;;25.98;9.27;;;;;;;16.61;100.00;102511.41;3583849;40;20033;-62
2021/07/16 22:58:07;;;;;;;30.38;10.70;;;;;;;16.46;100.00;102514.47;3579488;40;20040;-62
2021/07/16 23:00:34;;;;;;;28.65;10.43;;;;;;;16.46;100.00;102511.75;3580159;40;20117;-62
2021/07/16 23:03:01;;;;;;;26.63;10.07;;;;;;;16.38;100.00;102506.13;3578811;40;20346;-62
2021/07/16 23:05:28;;;;;;;26.30;9.48;;;;;;;16.43;100.00;102514.75;3582041;40;20039;-62
2021/07/16 23:07:54;;;;;;;29.52;10.73;;;;;;;16.38;100.00;102508.84;3581766;40;20043;-61
2021/07/16 23:10:21;;;;;;;36.05;10.13;;;;;;;16.28;100.00;102505.19;3581331;40;20050;-62
2021/07/16 23:12:49;;;;;;;27.42;9.70;;;;;;;16.26;100.00;102501.75;3582204;40;20358;-62
2021/07/16 23:15:16;;;;;;;24.10;10.02;;;;;;;16.26;100.00;102507.19;3581440;40;20040;-62
2021/07/16 23:17:42;;;;;;;30.30;10.93;;;;;;;16.25;100.00;102511.78;3579336;40;20029;-62
2021/07/16 23:20:11;;;;;;;26.63;10.48;;;;;;;16.21;100.00;102510.31;3581269;40;20050;-62
2021/07/16 23:22:38;;;;;;;26.90;10.82;;;;;;;16.20;100.00;102514.03;3580452;40;20047;-62
2021/07/16 23:25:05;;;;;;;31.17;11.10;;;;;;;16.23;100.00;102519.19;3580039;40;20069;-62
2021/07/16 23:27:32;;;;;;;25.60;9.80;;;;;;;16.21;100.00;102520.31;3579544;40;20031;-62
2021/07/16 23:29:59;;;;;;;29.25;10.63;;;;;;;16.24;100.00;102520.06;3581164;40;20037;-62
2021/07/16 23:32:26;;;;;;;30.42;10.77;;;;;;;16.24;100.00;102530.94;3578541;40;20385;-61
2021/07/16 23:34:53;;;;;;;32.33;10.70;;;;;;;16.19;100.00;102534.03;3578259;40;20033;-62
2021/07/16 23:37:20;;;;;;;25.17;10.88;;;;;;;16.21;100.00;102525.75;3580621;40;20046;-62
2021/07/16 23:39:46;;;;;;;32.50;10.70;;;;;;;16.28;100.00;102529.66;3579862;40;20033;-62
2021/07/16 23:42:13;;;;;;;28.00;10.60;;;;;;;16.26;100.00;102539.81;3580945;40;20041;-62
2021/07/16 23:44:39;;;;;;;26.50;10.70;;;;;;;16.28;100.00;102524.22;3587421;39;20052;-62
2021/07/16 23:47:07;;;;;;;32.25;11.02;;;;;;;16.36;100.00;102524.44;3590120;39;20037;-63
2021/07/16 23:49:33;;;;;;;28.98;10.18;;;;;;;16.35;100.00;102519.97;3589634;39;20048;-62
2021/07/16 23:52:00;;;;;;;25.95;9.07;;;;;;;16.45;100.00;102525.47;3589969;39;20038;-62
2021/07/16 23:54:26;;;;;;;25.58;10.38;;;;;;;16.38;100.00;102524.28;3590459;39;20041;-62
2021/07/16 23:56:53;;;;;;;32.53;10.95;;;;;;;16.33;100.00;102526.53;3590270;39;20040;-63
2021/07/16 23:59:19;;;;;;;30.70;11.43;;;;;;;16.18;100.00;102532.31;3591656;39;20045;-62
